sensor_id;sensor_type;location;lat;lon;timestamp;P1;durP1;ratioP1;P2;durP2;ratioP2
3817;SDS011;1924;48.078;11.516;2022-10-31T00:01:45;29.80;;;0.80;;
3817;SDS011;1924;48.078;11.516;2022-10-31T00:04:13;29.80;;;0.80;;
3817;SDS011;1924;48.078;11.516;2022-10-31T00:06:40;29.80;;;0.80;;
3817;SDS011;1924;48.078;11.516;2022-10-31T00:09:09;29.70;;;0.80;;
3817;SDS011;1924;48.078;11.516;2022-10-31T00:11:36;29.90;;;0.80;;
3817;SDS011;1924;48.078;11.516;2022-10-31T00:14:03;29.60;;;0.80;;
3817;SDS011;1924;48.078;11.516;2022-10-31T00:16:30;29.70;;;0.80;;
3817;SDS011;1924;48.078;11.516;2022-10-31T00:18:58;29.70;;;0.80;;
3817;SDS011;1924;48.078;11.516;2022-10-31T00:21:31;29.70;;;0.80;;
3817;SDS011;1924;48.078;11.516;2022-10-31T00:23:58;29.63;;;0.80;;
3817;SDS011;1924;48.078;11.516;2022-10-31T00:26:26;29.70;;;0.80;;
3817;SDS011;1924;48.078;11.516;2022-10-31T00:28:53;29.80;;;0.80;;
3817;SDS011;1924;48.078;11.516;2022-10-31T00:31:20;29.80;;;0.80;;
3817;SDS011;1924;48.078;11.516;2022-10-31T00:33:47;29.70;;;0.80;;
3817;SDS011;1924;48.078;11.516;2022-10-31T00:36:14;29.70;;;0.80;;
3817;SDS011;1924;48.078;11.516;2022-10-31T00:38:44;29.50;;;0.80;;
3817;SDS011;1924;48.078;11.516;2022-10-31T00:41:12;29.90;;;0.80;;
3817;SDS011;1924;48.078;11.516;2022-10-31T00:43:40;29.60;;;0.80;;
3817;SDS011;1924;48.078;11.516;2022-10-31T00:46:07;29.80;;;0.80;;
3817;SDS011;1924;48.078;11.516;2022-10-31T00:48:37;29.80;;;0.80;;
3817;SDS011;1924;48.078;11.516;2022-10-31T00:51:04;29.70;;;0.80;;
3817;SDS011;1924;48.078;11.516;2022-10-31T00:53:32;29.80;;;0.80;;
3817;SDS011;1924;48.078;11.516;2022-10-31T00:56:00;29.70;;;0.80;;
3817;SDS011;1924;48.078;11.516;2022-10-31T00:58:27;29.50;;;0.80;;
3817;SDS011;1924;48.078;11.516;2022-10-31T01:00:54;29.70;;;0.80;;
3817;SDS011;1924;48.078;11.516;2022-10-31T01:03:24;29.70;;;0.80;;
3817;SDS011;1924;48.078;11.516;2022-10-31T01:05:55;29.80;;;0.80;;
3817;SDS011;1924;48.078;11.516;2022-10-31T01:08:26;29.90;;;0.80;;
3817;SDS011;1924;48.078;11.516;2022-10-31T01:11:02;29.60;;;0.80;;
3817;SDS011;1924;48.078;11.516;2022-10-31T01:13:31;29.80;;;0.80;;
3817;SDS011;1924;48.078;11.516;2022-10-31T01:15:59;29.80;;;0.80;;
3817;SDS011;1924;48.078;11.516;2022-10-31T01:18:27;29.80;;;0.80;;
3817;SDS011;1924;48.078;11.516;2022-10-31T01:20:57;29.80;;;0.80;;
3817;SDS011;1924;48.078;11.516;2022-10-31T01:23:25;29.67;;;0.80;;
3817;SDS011;1924;48.078;11.516;2022-10-31T01:25:59;29.80;;;0.80;;
3817;SDS011;1924;48.078;11.516;2022-10-31T01:28:29;29.80;;;0.80;;
3817;SDS011;1924;48.078;11.516;2022-10-31T01:30:59;29.90;;;0.80;;
3817;SDS011;1924;48.078;11.516;2022-10-31T01:33:27;29.90;;;0.80;;
3817;SDS011;1924;48.078;11.516;2022-10-31T01:35:54;29.80;;;0.80;;
3817;SDS011;1924;48.078;11.516;2022-10-31T01:38:20;29.70;;;0.80;;
3817;SDS011;1924;48.078;11.516;2022-10-31T01:40:48;29.80;;;0.80;;
3817;SDS011;1924;48.078;11.516;2022-10-31T01:43:16;29.77;;;0.80;;
3817;SDS011;1924;48.078;11.516;2022-10-31T01:45:43;29.83;;;0.80;;
3817;SDS011;1924;48.078;11.516;2022-10-31T01:48:15;29.70;;;0.80;;
3817;SDS011;1924;48.078;11.516;2022-10-31T01:50:44;29.90;;;0.80;;
3817;SDS011;1924;48.078;11.516;2022-10-31T01:53:14;29.70;;;0.80;;
3817;SDS011;1924;48.078;11.516;2022-10-31T01:55:42;29.80;;;0.80;;
3817;SDS011;1924;48.078;11.516;2022-10-31T01:58:13;29.80;;;0.80;;
3817;SDS011;1924;48.078;11.516;2022-10-31T02:00:45;29.70;;;0.80;;
3817;SDS011;1924;48.078;11.516;2022-10-31T02:03:16;29.73;;;0.80;;
3817;SDS011;1924;48.078;11.516;2022-10-31T02:05:44;29.70;;;0.80;;
3817;SDS011;1924;48.078;11.516;2022-10-31T02:08:12;29.70;;;0.80;;
3817;SDS011;1924;48.078;11.516;2022-10-31T02:10:43;29.70;;;0.80;;
3817;SDS011;1924;48.078;11.516;2022-10-31T02:13:10;29.87;;;0.80;;
3817;SDS011;1924;48.078;11.516;2022-10-31T02:15:40;29.77;;;0.80;;
3817;SDS011;1924;48.078;11.516;2022-10-31T02:18:08;29.70;;;0.80;;
3817;SDS011;1924;48.078;11.516;2022-10-31T02:20:38;29.70;;;0.80;;
3817;SDS011;1924;48.078;11.516;2022-10-31T02:23:25;29.80;;;0.80;;
3817;SDS011;1924;48.078;11.516;2022-10-31T02:26:09;29.60;;;0.80;;
3817;SDS011;1924;48.078;11.516;2022-10-31T05:02:41;29.80;;;0.80;;
3817;SDS011;1924;48.078;11.516;2022-10-31T05:05:09;29.70;;;0.80;;
3817;SDS011;1924;48.078;11.516;2022-10-31T05:07:37;29.50;;;0.80;;
3817;SDS011;1924;48.078;11.516;2022-10-31T05:10:05;29.80;;;0.80;;
3817;SDS011;1924;48.078;11.516;2022-10-31T05:12:32;29.67;;;0.80;;
3817;SDS011;1924;48.078;11.516;2022-10-31T05:14:59;29.70;;;0.80;;
3817;SDS011;1924;48.078;11.516;2022-10-31T05:17:26;29.50;;;0.80;;
3817;SDS011;1924;48.078;11.516;2022-10-31T05:19:54;29.60;;;0.80;;
3817;SDS011;1924;48.078;11.516;2022-10-31T05:22:20;29.70;;;0.80;;
3817;SDS011;1924;48.078;11.516;2022-10-31T05:24:47;29.70;;;0.80;;
3817;SDS011;1924;48.078;11.516;2022-10-31T05:27:14;29.50;;;0.80;;
3817;SDS011;1924;48.078;11.516;2022-10-31T05:29:41;29.80;;;0.80;;
3817;SDS011;1924;48.078;11.516;2022-10-31T05:32:07;29.70;;;0.80;;
3817;SDS011;1924;48.078;11.516;2022-10-31T05:34:34;29.50;;;0.80;;
3817;SDS011;1924;48.078;11.516;2022-10-31T05:37:02;29.60;;;0.80;;
3817;SDS011;1924;48.078;11.516;2022-10-31T05:39:29;29.60;;;0.80;;
3817;SDS011;1924;48.078;11.516;2022-10-31T05:41:56;29.60;;;0.80;;
3817;SDS011;1924;48.078;11.516;2022-10-31T05:44:22;29.70;;;0.80;;
3817;SDS011;1924;48.078;11.516;2022-10-31T05:46:49;29.80;;;0.80;;
3817;SDS011;1924;48.078;11.516;2022-10-31T05:49:16;29.50;;;0.80;;
3817;SDS011;1924;48.078;11.516;2022-10-31T05:51:43;29.70;;;0.80;;
3817;SDS011;1924;48.078;11.516;2022-10-31T05:54:11;29.60;;;0.80;;
3817;SDS011;1924;48.078;11.516;2022-10-31T05:56:37;29.67;;;0.80;;
3817;SDS011;1924;48.078;11.516;2022-10-31T05:59:04;29.70;;;0.80;;
3817;SDS011;1924;48.078;11.516;2022-10-31T06:01:31;29.60;;;0.80;;
3817;SDS011;1924;48.078;11.516;2022-10-31T06:03:58;29.70;;;0.80;;
3817;SDS011;1924;48.078;11.516;2022-10-31T06:06:24;29.70;;;0.80;;
3817;SDS011;1924;48.078;11.516;2022-10-31T06:08:51;29.70;;;0.80;;
3817;SDS011;1924;48.078;11.516;2022-10-31T06:11:19;29.57;;;0.80;;
3817;SDS011;1924;48.078;11.516;2022-10-31T06:13:46;29.60;;;0.80;;
3817;SDS011;1924;48.078;11.516;2022-10-31T06:16:12;29.60;;;0.80;;
3817;SDS011;1924;48.078;11.516;2022-10-31T06:18:39;29.50;;;0.80;;
3817;SDS011;1924;48.078;11.516;2022-10-31T06:21:06;29.50;;;0.80;;
3817;SDS011;1924;48.078;11.516;2022-10-31T06:23:33;29.70;;;0.80;;
3817;SDS011;1924;48.078;11.516;2022-10-31T06:25:59;29.40;;;0.80;;
3817;SDS011;1924;48.078;11.516;2022-10-31T06:28:27;29.70;;;0.80;;
3817;SDS011;1924;48.078;11.516;2022-10-31T06:30:54;29.47;;;0.80;;
3817;SDS011;1924;48.078;11.516;2022-10-31T06:33:21;29.60;;;0.80;;
3817;SDS011;1924;48.078;11.516;2022-10-31T06:35:47;29.70;;;0.80;;
3817;SDS011;1924;48.078;11.516;2022-10-31T06:38:14;29.80;;;0.80;;
3817;SDS011;1924;48.078;11.516;2022-10-31T06:40:41;29.60;;;0.80;;
3817;SDS011;1924;48.078;11.516;2022-10-31T06:43:08;29.70;;;0.80;;
3817;SDS011;1924;48.078;11.516;2022-10-31T06:45:37;29.70;;;0.80;;
3817;SDS011;1924;48.078;11.516;2022-10-31T06:48:04;29.70;;;0.80;;
3817;SDS011;1924;48.078;11.516;2022-10-31T06:50:31;29.70;;;0.80;;
3817;SDS011;1924;48.078;11.516;2022-10-31T06:52:58;29.60;;;0.80;;
3817;SDS011;1924;48.078;11.516;2022-10-31T06:55:25;29.70;;;0.80;;
3817;SDS011;1924;48.078;11.516;2022-10-31T06:57:52;29.60;;;0.80;;
3817;SDS011;1924;48.078;11.516;2022-10-31T07:00:20;29.70;;;0.80;;
3817;SDS011;1924;48.078;11.516;2022-10-31T07:02:54;29.57;;;0.80;;
3817;SDS011;1924;48.078;11.516;2022-10-31T07:05:22;29.70;;;0.80;;
3817;SDS011;1924;48.078;11.516;2022-10-31T07:07:51;29.80;;;0.80;;
3817;SDS011;1924;48.078;11.516;2022-10-31T07:10:19;29.70;;;0.80;;
3817;SDS011;1924;48.078;11.516;2022-10-31T07:12:46;29.60;;;0.80;;
3817;SDS011;1924;48.078;11.516;2022-10-31T07:15:13;29.80;;;0.80;;
3817;SDS011;1924;48.078;11.516;2022-10-31T07:17:39;29.70;;;0.80;;
3817;SDS011;1924;48.078;11.516;2022-10-31T07:20:08;29.60;;;0.80;;
3817;SDS011;1924;48.078;11.516;2022-10-31T07:22:36;29.60;;;0.80;;
3817;SDS011;1924;48.078;11.516;2022-10-31T07:25:03;29.70;;;0.80;;
3817;SDS011;1924;48.078;11.516;2022-10-31T07:27:34;29.60;;;0.80;;
3817;SDS011;1924;48.078;11.516;2022-10-31T07:30:02;29.67;;;0.80;;
3817;SDS011;1924;48.078;11.516;2022-10-31T07:32:36;29.60;;;0.80;;
3817;SDS011;1924;48.078;11.516;2022-10-31T07:35:04;29.70;;;0.80;;
3817;SDS011;1924;48.078;11.516;2022-10-31T07:37:32;29.77;;;0.80;;
3817;SDS011;1924;48.078;11.516;2022-10-31T07:39:59;29.57;;;0.80;;
3817;SDS011;1924;48.078;11.516;2022-10-31T07:42:25;29.80;;;0.80;;
3817;SDS011;1924;48.078;11.516;2022-10-31T07:44:53;29.57;;;0.80;;
3817;SDS011;1924;48.078;11.516;2022-10-31T07:47:19;29.80;;;0.80;;
3817;SDS011;1924;48.078;11.516;2022-10-31T07:49:46;29.83;;;0.80;;
3817;SDS011;1924;48.078;11.516;2022-10-31T07:52:13;29.90;;;0.80;;
3817;SDS011;1924;48.078;11.516;2022-10-31T07:54:41;29.80;;;0.80;;
3817;SDS011;1924;48.078;11.516;2022-10-31T07:57:08;29.80;;;0.80;;
3817;SDS011;1924;48.078;11.516;2022-10-31T07:59:35;29.97;;;0.80;;
3817;SDS011;1924;48.078;11.516;2022-10-31T08:02:01;29.90;;;0.80;;
3817;SDS011;1924;48.078;11.516;2022-10-31T08:04:28;29.90;;;0.80;;
3817;SDS011;1924;48.078;11.516;2022-10-31T08:06:55;29.97;;;0.80;;
3817;SDS011;1924;48.078;11.516;2022-10-31T08:09:22;29.90;;;0.80;;
3817;SDS011;1924;48.078;11.516;2022-10-31T08:11:50;30.00;;;0.80;;
3817;SDS011;1924;48.078;11.516;2022-10-31T08:14:16;30.10;;;0.80;;
3817;SDS011;1924;48.078;11.516;2022-10-31T08:16:43;30.10;;;0.80;;
3817;SDS011;1924;48.078;11.516;2022-10-31T08:19:10;30.00;;;0.80;;
3817;SDS011;1924;48.078;11.516;2022-10-31T08:21:37;30.13;;;0.80;;
3817;SDS011;1924;48.078;11.516;2022-10-31T08:24:04;30.20;;;0.80;;
3817;SDS011;1924;48.078;11.516;2022-10-31T08:26:31;30.27;;;0.80;;
3817;SDS011;1924;48.078;11.516;2022-10-31T08:28:59;30.10;;;0.80;;
3817;SDS011;1924;48.078;11.516;2022-10-31T08:31:26;30.10;;;0.80;;
3817;SDS011;1924;48.078;11.516;2022-10-31T08:33:54;30.30;;;0.80;;
3817;SDS011;1924;48.078;11.516;2022-10-31T08:36:21;30.17;;;0.80;;
3817;SDS011;1924;48.078;11.516;2022-10-31T08:38:47;30.20;;;0.80;;
3817;SDS011;1924;48.078;11.516;2022-10-31T08:41:14;30.30;;;0.80;;
3817;SDS011;1924;48.078;11.516;2022-10-31T08:43:41;30.20;;;0.80;;
3817;SDS011;1924;48.078;11.516;2022-10-31T08:46:09;30.13;;;0.80;;
3817;SDS011;1924;48.078;11.516;2022-10-31T08:48:36;29.97;;;0.80;;
3817;SDS011;1924;48.078;11.516;2022-10-31T08:51:03;30.10;;;0.80;;
3817;SDS011;1924;48.078;11.516;2022-10-31T08:53:30;30.10;;;0.80;;
3817;SDS011;1924;48.078;11.516;2022-10-31T08:55:57;29.90;;;0.80;;
3817;SDS011;1924;48.078;11.516;2022-10-31T08:58:24;29.90;;;0.80;;
3817;SDS011;1924;48.078;11.516;2022-10-31T09:00:51;30.10;;;0.80;;
3817;SDS011;1924;48.078;11.516;2022-10-31T09:03:21;30.00;;;0.80;;
3817;SDS011;1924;48.078;11.516;2022-10-31T09:05:50;30.00;;;0.80;;
3817;SDS011;1924;48.078;11.516;2022-10-31T09:08:20;30.00;;;0.80;;
3817;SDS011;1924;48.078;11.516;2022-10-31T09:10:47;29.87;;;0.80;;
3817;SDS011;1924;48.078;11.516;2022-10-31T09:13:14;29.90;;;0.80;;
3817;SDS011;1924;48.078;11.516;2022-10-31T09:15:43;29.90;;;0.80;;
3817;SDS011;1924;48.078;11.516;2022-10-31T09:18:11;29.90;;;0.80;;
3817;SDS011;1924;48.078;11.516;2022-10-31T09:20:40;29.80;;;0.80;;
3817;SDS011;1924;48.078;11.516;2022-10-31T09:23:09;30.00;;;0.80;;
3817;SDS011;1924;48.078;11.516;2022-10-31T09:25:37;29.90;;;0.80;;
3817;SDS011;1924;48.078;11.516;2022-10-31T09:28:05;30.00;;;0.80;;
3817;SDS011;1924;48.078;11.516;2022-10-31T09:30:33;29.87;;;0.80;;
3817;SDS011;1924;48.078;11.516;2022-10-31T09:33:02;29.93;;;0.80;;
3817;SDS011;1924;48.078;11.516;2022-10-31T09:35:29;30.00;;;0.80;;
3817;SDS011;1924;48.078;11.516;2022-10-31T09:37:58;30.20;;;0.80;;
3817;SDS011;1924;48.078;11.516;2022-10-31T09:40:29;30.10;;;0.80;;
3817;SDS011;1924;48.078;11.516;2022-10-31T09:43:00;30.20;;;0.80;;
3817;SDS011;1924;48.078;11.516;2022-10-31T09:45:34;30.07;;;0.80;;
3817;SDS011;1924;48.078;11.516;2022-10-31T09:48:08;30.10;;;0.80;;
3817;SDS011;1924;48.078;11.516;2022-10-31T09:50:44;29.93;;;0.80;;
3817;SDS011;1924;48.078;11.516;2022-10-31T09:53:20;30.10;;;0.80;;
3817;SDS011;1924;48.078;11.516;2022-10-31T09:55:52;30.10;;;0.80;;
3817;SDS011;1924;48.078;11.516;2022-10-31T09:58:23;30.10;;;0.80;;
3817;SDS011;1924;48.078;11.516;2022-10-31T10:00:51;30.03;;;0.80;;
3817;SDS011;1924;48.078;11.516;2022-10-31T10:03:26;30.10;;;0.80;;
3817;SDS011;1924;48.078;11.516;2022-10-31T10:06:01;30.10;;;0.80;;
3817;SDS011;1924;48.078;11.516;2022-10-31T10:08:34;30.03;;;0.80;;
3817;SDS011;1924;48.078;11.516;2022-10-31T10:11:05;30.00;;;0.80;;
3817;SDS011;1924;48.078;11.516;2022-10-31T10:13:47;30.27;;;0.80;;
3817;SDS011;1924;48.078;11.516;2022-10-31T10:16:27;30.10;;;0.80;;
3817;SDS011;1924;48.078;11.516;2022-10-31T10:19:11;30.10;;;0.80;;
3817;SDS011;1924;48.078;11.516;2022-10-31T10:21:48;30.23;;;0.80;;
3817;SDS011;1924;48.078;11.516;2022-10-31T10:24:27;30.30;;;0.80;;
3817;SDS011;1924;48.078;11.516;2022-10-31T10:27:03;30.17;;;0.80;;
3817;SDS011;1924;48.078;11.516;2022-10-31T10:29:40;30.10;;;0.80;;
3817;SDS011;1924;48.078;11.516;2022-10-31T10:32:14;30.00;;;0.80;;
3817;SDS011;1924;48.078;11.516;2022-10-31T10:34:47;30.10;;;0.80;;
3817;SDS011;1924;48.078;11.516;2022-10-31T10:37:20;30.00;;;0.80;;
3817;SDS011;1924;48.078;11.516;2022-10-31T10:39:53;29.90;;;0.80;;
3817;SDS011;1924;48.078;11.516;2022-10-31T10:42:26;29.80;;;0.80;;
3817;SDS011;1924;48.078;11.516;2022-10-31T10:45:13;29.87;;;0.80;;
3817;SDS011;1924;48.078;11.516;2022-10-31T10:48:05;30.10;;;0.80;;
3817;SDS011;1924;48.078;11.516;2022-10-31T10:50:36;29.80;;;0.80;;
3817;SDS011;1924;48.078;11.516;2022-10-31T10:53:09;29.97;;;0.80;;
3817;SDS011;1924;48.078;11.516;2022-10-31T10:55:58;30.20;;;0.80;;
3817;SDS011;1924;48.078;11.516;2022-10-31T10:58:32;29.80;;;0.70;;
3817;SDS011;1924;48.078;11.516;2022-10-31T11:01:01;29.80;;;0.80;;
3817;SDS011;1924;48.078;11.516;2022-10-31T11:03:34;29.73;;;0.80;;
3817;SDS011;1924;48.078;11.516;2022-10-31T11:06:02;29.77;;;0.80;;
3817;SDS011;1924;48.078;11.516;2022-10-31T11:08:29;29.70;;;0.80;;
3817;SDS011;1924;48.078;11.516;2022-10-31T11:11:00;29.80;;;0.80;;
3817;SDS011;1924;48.078;11.516;2022-10-31T11:13:29;29.80;;;0.80;;
3817;SDS011;1924;48.078;11.516;2022-10-31T11:15:57;29.37;;;0.80;;
3817;SDS011;1924;48.078;11.516;2022-10-31T11:18:27;29.90;;;0.90;;
3817;SDS011;1924;48.078;11.516;2022-10-31T11:20:59;29.47;;;0.80;;
3817;SDS011;1924;48.078;11.516;2022-10-31T11:23:28;29.60;;;0.80;;
3817;SDS011;1924;48.078;11.516;2022-10-31T11:25:55;29.50;;;0.80;;
3817;SDS011;1924;48.078;11.516;2022-10-31T11:28:26;29.60;;;0.80;;
3817;SDS011;1924;48.078;11.516;2022-10-31T11:30:55;29.70;;;0.80;;
3817;SDS011;1924;48.078;11.516;2022-10-31T11:33:25;29.40;;;0.80;;
3817;SDS011;1924;48.078;11.516;2022-10-31T11:35:55;29.40;;;0.80;;
3817;SDS011;1924;48.078;11.516;2022-10-31T11:38:24;29.50;;;0.80;;
3817;SDS011;1924;48.078;11.516;2022-10-31T11:40:56;29.50;;;0.70;;
3817;SDS011;1924;48.078;11.516;2022-10-31T11:43:27;29.50;;;0.80;;
3817;SDS011;1924;48.078;11.516;2022-10-31T11:45:54;29.50;;;0.80;;
3817;SDS011;1924;48.078;11.516;2022-10-31T11:48:21;29.60;;;0.80;;
3817;SDS011;1924;48.078;11.516;2022-10-31T11:50:50;29.60;;;0.80;;
3817;SDS011;1924;48.078;11.516;2022-10-31T11:53:22;29.50;;;0.80;;
3817;SDS011;1924;48.078;11.516;2022-10-31T11:56:00;29.47;;;0.80;;
3817;SDS011;1924;48.078;11.516;2022-10-31T11:58:32;29.60;;;0.80;;
3817;SDS011;1924;48.078;11.516;2022-10-31T12:00:58;29.50;;;0.80;;
3817;SDS011;1924;48.078;11.516;2022-10-31T12:03:35;29.60;;;0.70;;
3817;SDS011;1924;48.078;11.516;2022-10-31T12:06:10;29.70;;;0.80;;
3817;SDS011;1924;48.078;11.516;2022-10-31T12:08:42;29.70;;;0.80;;
3817;SDS011;1924;48.078;11.516;2022-10-31T12:11:13;29.57;;;0.77;;
3817;SDS011;1924;48.078;11.516;2022-10-31T12:13:55;29.60;;;0.80;;
3817;SDS011;1924;48.078;11.516;2022-10-31T12:16:32;29.60;;;0.80;;
3817;SDS011;1924;48.078;11.516;2022-10-31T12:19:04;29.57;;;0.80;;
3817;SDS011;1924;48.078;11.516;2022-10-31T12:21:42;29.70;;;0.80;;
3817;SDS011;1924;48.078;11.516;2022-10-31T12:24:28;29.70;;;0.80;;
3817;SDS011;1924;48.078;11.516;2022-10-31T12:27:11;29.70;;;0.80;;
3817;SDS011;1924;48.078;11.516;2022-10-31T12:29:49;29.70;;;0.80;;
3817;SDS011;1924;48.078;11.516;2022-10-31T12:32:28;29.70;;;0.80;;
3817;SDS011;1924;48.078;11.516;2022-10-31T12:35:05;29.57;;;0.80;;
3817;SDS011;1924;48.078;11.516;2022-10-31T12:38:00;29.60;;;0.80;;
3817;SDS011;1924;48.078;11.516;2022-10-31T12:40:46;29.70;;;0.80;;
3817;SDS011;1924;48.078;11.516;2022-10-31T12:43:30;29.47;;;0.80;;
3817;SDS011;1924;48.078;11.516;2022-10-31T12:46:04;29.67;;;0.80;;
3817;SDS011;1924;48.078;11.516;2022-10-31T12:48:39;29.70;;;0.80;;
3817;SDS011;1924;48.078;11.516;2022-10-31T12:51:19;29.60;;;0.80;;
3817;SDS011;1924;48.078;11.516;2022-10-31T12:53:54;29.70;;;0.80;;
3817;SDS011;1924;48.078;11.516;2022-10-31T12:56:35;29.60;;;0.80;;
3817;SDS011;1924;48.078;11.516;2022-10-31T12:59:13;29.57;;;0.70;;
3817;SDS011;1924;48.078;11.516;2022-10-31T13:01:47;29.50;;;0.80;;
3817;SDS011;1924;48.078;11.516;2022-10-31T13:04:19;29.67;;;0.80;;
3817;SDS011;1924;48.078;11.516;2022-10-31T13:06:51;29.70;;;0.80;;
3817;SDS011;1924;48.078;11.516;2022-10-31T13:09:23;29.77;;;0.80;;
3817;SDS011;1924;48.078;11.516;2022-10-31T13:11:55;29.80;;;0.77;;
3817;SDS011;1924;48.078;11.516;2022-10-31T13:14:26;29.70;;;0.80;;
3817;SDS011;1924;48.078;11.516;2022-10-31T13:16:59;29.80;;;0.80;;
3817;SDS011;1924;48.078;11.516;2022-10-31T13:19:27;29.63;;;0.80;;
3817;SDS011;1924;48.078;11.516;2022-10-31T13:22:03;29.70;;;0.80;;
3817;SDS011;1924;48.078;11.516;2022-10-31T13:24:34;29.80;;;0.80;;
3817;SDS011;1924;48.078;11.516;2022-10-31T13:27:09;29.80;;;0.80;;
3817;SDS011;1924;48.078;11.516;2022-10-31T13:29:39;29.80;;;0.80;;
3817;SDS011;1924;48.078;11.516;2022-10-31T13:32:16;29.60;;;0.80;;
3817;SDS011;1924;48.078;11.516;2022-10-31T13:34:44;29.80;;;0.80;;
3817;SDS011;1924;48.078;11.516;2022-10-31T13:37:16;29.80;;;0.80;;
3817;SDS011;1924;48.078;11.516;2022-10-31T13:40:02;29.70;;;0.70;;
3817;SDS011;1924;48.078;11.516;2022-10-31T13:42:40;29.60;;;0.80;;
3817;SDS011;1924;48.078;11.516;2022-10-31T13:45:15;29.70;;;0.80;;
3817;SDS011;1924;48.078;11.516;2022-10-31T13:47:54;29.57;;;0.80;;
3817;SDS011;1924;48.078;11.516;2022-10-31T13:50:23;29.70;;;0.80;;
3817;SDS011;1924;48.078;11.516;2022-10-31T13:52:50;29.70;;;0.73;;
3817;SDS011;1924;48.078;11.516;2022-10-31T13:55:36;29.67;;;0.80;;
3817;SDS011;1924;48.078;11.516;2022-10-31T13:58:05;29.50;;;0.80;;
3817;SDS011;1924;48.078;11.516;2022-10-31T14:00:59;29.57;;;0.80;;
3817;SDS011;1924;48.078;11.516;2022-10-31T14:03:40;29.70;;;0.73;;
3817;SDS011;1924;48.078;11.516;2022-10-31T14:06:11;29.50;;;0.73;;
3817;SDS011;1924;48.078;11.516;2022-10-31T14:08:40;29.50;;;0.80;;
3817;SDS011;1924;48.078;11.516;2022-10-31T14:11:17;29.50;;;0.80;;
3817;SDS011;1924;48.078;11.516;2022-10-31T14:13:48;29.60;;;0.77;;
3817;SDS011;1924;48.078;11.516;2022-10-31T14:16:17;29.70;;;0.80;;
3817;SDS011;1924;48.078;11.516;2022-10-31T14:18:48;29.67;;;0.80;;
3817;SDS011;1924;48.078;11.516;2022-10-31T14:21:29;29.57;;;0.80;;
3817;SDS011;1924;48.078;11.516;2022-10-31T14:23:57;29.60;;;0.70;;
3817;SDS011;1924;48.078;11.516;2022-10-31T14:26:31;29.57;;;0.70;;
3817;SDS011;1924;48.078;11.516;2022-10-31T14:29:00;29.60;;;0.70;;
3817;SDS011;1924;48.078;11.516;2022-10-31T14:31:32;29.40;;;0.80;;
3817;SDS011;1924;48.078;11.516;2022-10-31T14:34:04;29.50;;;0.70;;
3817;SDS011;1924;48.078;11.516;2022-10-31T14:36:48;29.40;;;0.73;;
3817;SDS011;1924;48.078;11.516;2022-10-31T14:39:24;29.47;;;0.73;;
3817;SDS011;1924;48.078;11.516;2022-10-31T14:41:58;29.40;;;0.70;;
3817;SDS011;1924;48.078;11.516;2022-10-31T14:44:41;29.50;;;0.70;;
3817;SDS011;1924;48.078;11.516;2022-10-31T14:47:22;29.40;;;0.80;;
3817;SDS011;1924;48.078;11.516;2022-10-31T14:50:12;29.47;;;0.80;;
3817;SDS011;1924;48.078;11.516;2022-10-31T14:52:48;29.50;;;0.80;;
3817;SDS011;1924;48.078;11.516;2022-10-31T14:55:16;29.40;;;0.70;;
3817;SDS011;1924;48.078;11.516;2022-10-31T14:57:45;29.47;;;0.80;;
3817;SDS011;1924;48.078;11.516;2022-10-31T15:00:16;29.70;;;0.80;;
3817;SDS011;1924;48.078;11.516;2022-10-31T15:02:46;29.40;;;0.70;;
3817;SDS011;1924;48.078;11.516;2022-10-31T15:05:21;29.40;;;0.80;;
3817;SDS011;1924;48.078;11.516;2022-10-31T15:07:52;29.57;;;0.80;;
3817;SDS011;1924;48.078;11.516;2022-10-31T15:10:21;29.30;;;0.80;;
3817;SDS011;1924;48.078;11.516;2022-10-31T15:12:50;29.40;;;0.80;;
3817;SDS011;1924;48.078;11.516;2022-10-31T15:15:18;29.40;;;0.80;;
3817;SDS011;1924;48.078;11.516;2022-10-31T15:17:48;29.40;;;0.77;;
3817;SDS011;1924;48.078;11.516;2022-10-31T15:20:17;29.60;;;0.80;;
3817;SDS011;1924;48.078;11.516;2022-10-31T15:22:48;29.50;;;0.80;;
3817;SDS011;1924;48.078;11.516;2022-10-31T15:25:17;29.57;;;0.80;;
3817;SDS011;1924;48.078;11.516;2022-10-31T15:27:45;29.40;;;0.80;;
3817;SDS011;1924;48.078;11.516;2022-10-31T15:30:15;29.47;;;0.80;;
3817;SDS011;1924;48.078;11.516;2022-10-31T15:32:44;29.57;;;0.80;;
3817;SDS011;1924;48.078;11.516;2022-10-31T15:35:14;29.50;;;0.80;;
3817;SDS011;1924;48.078;11.516;2022-10-31T15:37:49;29.57;;;0.80;;
3817;SDS011;1924;48.078;11.516;2022-10-31T15:40:16;29.40;;;0.80;;
3817;SDS011;1924;48.078;11.516;2022-10-31T15:42:45;29.57;;;0.80;;
3817;SDS011;1924;48.078;11.516;2022-10-31T15:45:16;29.57;;;0.80;;
3817;SDS011;1924;48.078;11.516;2022-10-31T15:47:45;29.60;;;0.80;;
3817;SDS011;1924;48.078;11.516;2022-10-31T15:50:19;29.70;;;0.70;;
3817;SDS011;1924;48.078;11.516;2022-10-31T15:52:51;29.67;;;0.80;;
3817;SDS011;1924;48.078;11.516;2022-10-31T15:55:19;29.60;;;0.80;;
3817;SDS011;1924;48.078;11.516;2022-10-31T15:57:47;29.60;;;0.80;;
3817;SDS011;1924;48.078;11.516;2022-10-31T16:00:23;29.80;;;0.80;;
3817;SDS011;1924;48.078;11.516;2022-10-31T16:03:02;29.80;;;0.80;;
3817;SDS011;1924;48.078;11.516;2022-10-31T16:05:35;29.80;;;0.70;;
3817;SDS011;1924;48.078;11.516;2022-10-31T16:08:03;29.80;;;0.80;;
3817;SDS011;1924;48.078;11.516;2022-10-31T16:10:32;30.00;;;0.80;;
3817;SDS011;1924;48.078;11.516;2022-10-31T16:13:00;30.00;;;0.80;;
3817;SDS011;1924;48.078;11.516;2022-10-31T16:15:28;30.10;;;0.80;;
3817;SDS011;1924;48.078;11.516;2022-10-31T16:17:55;29.90;;;0.70;;
3817;SDS011;1924;48.078;11.516;2022-10-31T16:20:23;30.10;;;0.80;;
3817;SDS011;1924;48.078;11.516;2022-10-31T16:22:54;30.00;;;0.80;;
3817;SDS011;1924;48.078;11.516;2022-10-31T16:25:24;30.00;;;0.80;;
3817;SDS011;1924;48.078;11.516;2022-10-31T16:27:53;30.00;;;0.80;;
3817;SDS011;1924;48.078;11.516;2022-10-31T16:30:30;30.00;;;0.80;;
3817;SDS011;1924;48.078;11.516;2022-10-31T16:33:03;29.87;;;0.80;;
3817;SDS011;1924;48.078;11.516;2022-10-31T16:35:32;29.90;;;0.80;;
3817;SDS011;1924;48.078;11.516;2022-10-31T16:38:01;30.10;;;0.80;;
3817;SDS011;1924;48.078;11.516;2022-10-31T16:40:28;30.00;;;0.80;;
3817;SDS011;1924;48.078;11.516;2022-10-31T16:42:57;29.90;;;0.80;;
3817;SDS011;1924;48.078;11.516;2022-10-31T16:45:25;29.90;;;0.80;;
3817;SDS011;1924;48.078;11.516;2022-10-31T16:47:54;29.83;;;0.80;;
3817;SDS011;1924;48.078;11.516;2022-10-31T16:50:29;29.97;;;0.73;;
3817;SDS011;1924;48.078;11.516;2022-10-31T16:52:56;30.00;;;0.80;;
3817;SDS011;1924;48.078;11.516;2022-10-31T16:55:24;30.00;;;0.80;;
3817;SDS011;1924;48.078;11.516;2022-10-31T16:57:51;30.20;;;0.80;;
3817;SDS011;1924;48.078;11.516;2022-10-31T17:00:20;30.20;;;0.80;;
3817;SDS011;1924;48.078;11.516;2022-10-31T17:02:49;30.00;;;0.80;;
3817;SDS011;1924;48.078;11.516;2022-10-31T17:05:17;30.00;;;0.80;;
3817;SDS011;1924;48.078;11.516;2022-10-31T17:07:45;30.17;;;0.80;;
3817;SDS011;1924;48.078;11.516;2022-10-31T17:10:12;30.13;;;0.80;;
3817;SDS011;1924;48.078;11.516;2022-10-31T17:12:42;30.00;;;0.80;;
3817;SDS011;1924;48.078;11.516;2022-10-31T17:15:14;30.10;;;0.80;;
3817;SDS011;1924;48.078;11.516;2022-10-31T17:17:43;30.10;;;0.80;;
3817;SDS011;1924;48.078;11.516;2022-10-31T17:20:14;30.27;;;0.80;;
3817;SDS011;1924;48.078;11.516;2022-10-31T17:22:44;30.27;;;0.80;;
3817;SDS011;1924;48.078;11.516;2022-10-31T17:25:12;29.90;;;0.80;;
3817;SDS011;1924;48.078;11.516;2022-10-31T17:27:42;30.07;;;0.80;;
3817;SDS011;1924;48.078;11.516;2022-10-31T17:30:10;30.17;;;0.80;;
3817;SDS011;1924;48.078;11.516;2022-10-31T17:32:38;30.17;;;0.80;;
3817;SDS011;1924;48.078;11.516;2022-10-31T17:35:05;30.03;;;0.80;;
3817;SDS011;1924;48.078;11.516;2022-10-31T17:37:32;30.30;;;0.80;;
3817;SDS011;1924;48.078;11.516;2022-10-31T17:39:59;30.10;;;0.80;;
3817;SDS011;1924;48.078;11.516;2022-10-31T17:42:26;30.20;;;0.80;;